• Join FlightAware (Why Join?)
  • Login
  • US Flag 
04:01AM EST


 

Airport Tracker/Info


-or-


 

Live Flight TrackerFlight Track Log ✈ CSN3331 ✈ 13-Jul-2014 ✈ ZGGG / CAN - ZGNN / NNG

Flight Track Log - Related Links

Times and Time Zones

All times are in EDT time to prevent confusion due to time zone crossing. See the CSN3331 flight status page for this flight to view local times or setup timezone preferences in your user account.

Time Position Orientation Groundspeed Altitude Reporting Facility
EDT Latitude Longitude Course Direction KTS MPH feet Rate Location/Type
12:16PM 23.3815 113.2182 262° West  Level Estimated
12:17PM 23.3703 113.1364 262° West  Level Estimated
12:18PM 23.3590 113.0545 262° West  Level Estimated
12:19PM 23.3477 112.9727 261° West  Level Estimated
12:20PM 23.3364 112.8909 261° West  Level Estimated
12:21PM 23.3251 112.8091 261° West  Level Estimated
12:22PM 23.3137 112.7273 261° West  Level Estimated
12:23PM 23.3022 112.6456 261° West  Level Estimated
12:24PM 23.2907 112.5638 261° West  Level Estimated
12:25PM 23.2792 112.4821 261° West  Level Estimated
12:26PM 23.2676 112.4003 261° West  Level Estimated
12:27PM 23.2560 112.3186 261° West  Level Estimated
12:28PM 23.2443 112.2369 261° West  Level Estimated
12:29PM 23.2326 112.1553 261° West  Level Estimated
12:30PM 23.2209 112.0736 261° West  Level Estimated
12:31PM 23.2091 111.9920 261° West  Level Estimated
12:32PM 23.1973 111.9103 261° West  Level Estimated
12:33PM 23.1854 111.8287 261° West  Level Estimated
12:34PM 23.1735 111.7471 261° West  Level Estimated
12:35PM 23.1615 111.6655 261° West  Level Estimated
12:36PM 23.1495 111.5839 261° West  Level Estimated
12:37PM 23.1375 111.5023 261° West  Level Estimated
12:38PM 23.1254 111.4208 261° West  Level Estimated
12:39PM 23.1133 111.3393 261° West  Level Estimated
12:40PM 23.1011 111.2577 261° West  Level Estimated
12:41PM 23.0889 111.1762 261° West  Level Estimated
12:42PM 23.0766 111.0947 261° West  Level Estimated
12:43PM 23.0643 111.0133 261° West  Level Estimated
12:44PM 23.0520 110.9318 261° West  Level Estimated
12:45PM 23.0396 110.8504 261° West  Level Estimated
12:46PM 23.0272 110.7689 261° West  Level Estimated
12:47PM 23.0148 110.6875 261° West  Level Estimated
12:48PM 23.0023 110.6061 261° West  Level Estimated
12:49PM 22.9897 110.5247 261° West  Level Estimated
12:50PM 22.9771 110.4434 260° West  Level Estimated
12:51PM 22.9645 110.3620 260° West  Level Estimated
12:52PM 22.9519 110.2807 260° West  Level Estimated
12:53PM 22.9391 110.1993 260° West  Level Estimated
12:54PM 22.9264 110.1180 260° West  Level Estimated
12:55PM 22.9136 110.0367 260° West  Level Estimated
12:56PM 22.9008 109.9555 260° West  Level Estimated
12:57PM 22.8879 109.8742 260° West  Level Estimated
12:58PM 22.8750 109.7930 260° West  Level Estimated
12:59PM 22.8620 109.7117 260° West  Level Estimated
01:00PM 22.8490 109.6305 260° West  Level Estimated
01:01PM 22.8360 109.5493 260° West  Level Estimated
01:02PM 22.8229 109.4681 260° West  Level Estimated
01:03PM 22.8098 109.3869 260° West  Level Estimated
01:04PM 22.7966 109.3058 260° West  Level Estimated
01:05PM 22.7834 109.2246 260° West  Level Estimated
01:06PM 22.7702 109.1435 260° West  Level Estimated
01:07PM 22.7569 109.0624 260° West  Level Estimated
01:08PM 22.7436 108.9813 260° West  Level Estimated
01:09PM 22.7302 108.9003 260° West  Level Estimated
01:10PM 22.7168 108.8192 260° West  Level Estimated
01:11PM 22.7034 108.7382 260° West  Level Estimated
01:12PM 22.6899 108.6571 260° West  Level Estimated
01:13PM 22.6763 108.5761 260° West  Level Estimated